createdAt,value
2022-08-20T03:18:46.380Z,28.48
2022-08-20T03:21:14.610Z,26.30
2022-08-20T03:23:42.459Z,25.27
2022-08-20T03:26:12.925Z,24.38
2022-08-20T03:28:41.062Z,23.08
2022-08-20T03:31:08.162Z,21.90
2022-08-20T03:33:35.884Z,19.27
2022-08-20T03:36:02.969Z,20.25
2022-08-20T03:38:32.356Z,18.58
2022-08-20T03:41:01.767Z,14.77
2022-08-20T03:43:28.970Z,13.60
2022-08-20T03:45:55.965Z,11.52
2022-08-20T03:48:23.121Z,9.45
2022-08-20T03:51:07.949Z,8.45
2022-08-20T03:53:35.862Z,8.57
2022-08-20T03:56:05.388Z,7.07
2022-08-20T03:58:35.246Z,8.60
2022-08-20T04:01:06.145Z,7.00
2022-08-20T04:03:33.157Z,6.90
2022-08-20T04:06:00.047Z,6.07
2022-08-20T04:08:29.527Z,5.97
2022-08-20T04:10:58.250Z,5.93
2022-08-20T04:13:26.589Z,5.70
2022-08-20T04:15:55.578Z,5.38
2022-08-20T04:18:25.903Z,4.97
2022-08-20T04:20:53.965Z,4.65
2022-08-20T04:23:21.723Z,4.47
2022-08-20T04:25:48.540Z,3.95
2022-08-20T04:28:24.879Z,3.70
2022-08-20T04:30:52.538Z,3.90
2022-08-20T04:33:33.271Z,3.72
2022-08-20T04:36:02.742Z,2.95
2022-08-20T04:38:50.494Z,2.90
2022-08-20T04:41:22.582Z,3.00
2022-08-20T04:43:50.790Z,2.67
2022-08-20T04:46:20.307Z,3.10
2022-08-20T04:48:49.194Z,2.58
2022-08-20T04:51:18.705Z,2.65
2022-08-20T04:53:52.251Z,3.03
2022-08-20T04:56:23.962Z,2.55
2022-08-20T04:58:52.586Z,2.80
2022-08-20T05:01:19.974Z,2.55
2022-08-20T05:03:50.035Z,2.88
2022-08-20T05:06:18.161Z,2.35
2022-08-20T05:08:45.451Z,2.17
2022-08-20T05:11:34.024Z,2.70
2022-08-20T05:14:01.429Z,2.30
2022-08-20T05:16:28.287Z,2.38
2022-08-20T05:18:55.420Z,2.15
2022-08-20T05:21:22.396Z,2.00
2022-08-20T05:23:49.652Z,2.20
2022-08-20T05:26:20.306Z,2.20
2022-08-20T05:28:57.509Z,1.95
2022-08-20T05:31:32.066Z,1.42
2022-08-20T05:34:09.798Z,2.00
2022-08-20T05:36:49.252Z,1.90
2022-08-20T05:39:18.381Z,2.00
2022-08-20T05:41:45.504Z,2.20
2022-08-20T05:44:15.601Z,2.30
2022-08-20T05:46:44.943Z,2.45
2022-08-20T05:49:14.437Z,2.20
2022-08-20T05:51:41.312Z,2.50
2022-08-20T05:54:08.225Z,2.63
2022-08-20T05:56:35.952Z,2.30
2022-08-20T05:59:05.475Z,2.70
2022-08-20T06:01:34.610Z,2.50
2022-08-20T06:04:20.738Z,2.17
2022-08-20T06:06:47.834Z,2.60
2022-08-20T06:09:31.220Z,2.60
2022-08-20T06:11:59.661Z,2.60
2022-08-20T06:14:26.679Z,2.40
2022-08-20T06:16:58.065Z,2.30
2022-08-20T06:21:56.479Z,2.63
2022-08-20T06:24:24.952Z,2.30
2022-08-20T06:26:56.597Z,1.80
2022-08-20T06:29:23.443Z,1.55
2022-08-20T06:31:50.182Z,1.33
2022-08-20T06:34:17.634Z,1.73
2022-08-20T06:36:48.765Z,1.50
2022-08-20T06:39:16.108Z,1.40
2022-08-20T06:41:43.053Z,1.35
2022-08-20T06:44:10.240Z,1.45
2022-08-20T06:46:38.512Z,1.45
2022-08-20T06:49:06.994Z,1.30
2022-08-20T06:51:35.318Z,1.55
2022-08-20T06:54:02.005Z,1.50
2022-08-20T06:56:28.836Z,1.08
2022-08-20T06:58:55.737Z,1.23
2022-08-20T07:01:22.637Z,1.40
2022-08-20T07:03:55.631Z,1.40
2022-08-20T07:06:25.728Z,1.48
2022-08-20T07:08:54.111Z,1.50
2022-08-20T07:11:26.992Z,1.20
2022-08-20T07:13:54.968Z,1.50
2022-08-20T07:16:21.778Z,1.50
2022-08-20T07:18:48.574Z,1.33
2022-08-20T07:21:17.649Z,1.27
2022-08-20T07:23:44.675Z,1.15
2022-08-20T07:26:12.953Z,1.00
2022-08-20T07:28:39.802Z,1.10
2022-08-20T07:31:39.665Z,1.00
2022-08-20T07:34:11.383Z,0.93
2022-08-20T07:36:38.217Z,1.48
2022-08-20T07:39:06.549Z,1.40
2022-08-20T07:41:33.886Z,1.00
2022-08-20T07:44:00.663Z,1.30
2022-08-20T07:46:31.241Z,1.25
2022-08-20T07:48:58.540Z,1.40
2022-08-20T07:51:25.350Z,1.85
2022-08-20T07:53:52.790Z,1.35
2022-08-20T07:56:24.438Z,1.00
2022-08-20T07:58:55.480Z,1.30
2022-08-20T08:01:30.482Z,1.60
2022-08-20T08:03:59.151Z,1.50
2022-08-20T08:06:29.585Z,1.40
2022-08-20T08:09:18.133Z,1.38
2022-08-20T08:11:50.156Z,1.48
2022-08-20T08:14:23.259Z,1.30
2022-08-20T08:16:50.670Z,1.33
2022-08-20T08:19:18.768Z,1.60
2022-08-20T08:21:45.587Z,1.00
2022-08-20T08:24:17.991Z,1.25
2022-08-20T08:26:50.067Z,1.15
2022-08-20T08:29:17.157Z,1.23
2022-08-20T08:31:44.449Z,1.25
2022-08-20T08:34:11.615Z,1.20
2022-08-20T08:36:39.331Z,1.83
2022-08-20T08:39:06.852Z,1.38
2022-08-20T08:41:49.968Z,1.10
2022-08-20T08:44:23.636Z,1.40
2022-08-20T08:46:58.627Z,0.90
2022-08-20T08:49:37.312Z,1.00
2022-08-20T08:52:28.683Z,1.45
2022-08-20T08:54:59.205Z,1.40
2022-08-20T08:57:27.240Z,0.90
2022-08-20T09:00:04.945Z,1.40
2022-08-20T09:02:34.947Z,1.02
2022-08-20T09:05:11.702Z,0.98
2022-08-20T09:07:38.730Z,1.10
2022-08-20T09:10:07.098Z,1.02
2022-08-20T09:12:33.945Z,1.27
2022-08-20T09:15:01.529Z,1.00
2022-08-20T09:17:28.467Z,1.05
2022-08-20T09:19:55.316Z,1.00
2022-08-20T09:22:25.513Z,1.10
2022-08-20T09:24:52.602Z,1.10
2022-08-20T09:27:19.607Z,1.20
2022-08-20T09:29:48.400Z,0.90
2022-08-20T09:32:24.577Z,1.00
2022-08-20T09:34:59.299Z,1.10
2022-08-20T09:37:32.434Z,1.23
2022-08-20T09:40:02.146Z,1.05
2022-08-20T09:42:32.177Z,0.98
2022-08-20T09:45:00.167Z,0.90
2022-08-20T09:47:27.081Z,1.02
2022-08-20T09:49:54.806Z,1.33
2022-08-20T09:52:31.206Z,1.10
2022-08-20T09:55:14.921Z,1.10
2022-08-20T09:57:42.975Z,1.30
2022-08-20T10:00:13.332Z,3.20
2022-08-20T10:02:41.413Z,1.08
2022-08-20T10:05:09.313Z,0.95
2022-08-20T10:07:39.905Z,3.35
2022-08-20T10:10:09.992Z,2.15
2022-08-20T10:12:36.934Z,2.53
2022-08-20T10:15:04.621Z,6.90
2022-08-20T10:17:31.437Z,1.60
2022-08-20T10:19:58.227Z,1.25
2022-08-20T10:22:25.608Z,1.52
2022-08-20T10:24:52.439Z,2.80
2022-08-20T10:27:19.225Z,1.10
2022-08-20T10:29:47.028Z,1.48
2022-08-20T10:32:16.114Z,2.00
2022-08-20T10:34:44.768Z,3.70
2022-08-20T10:37:19.546Z,7.65
2022-08-20T10:39:47.965Z,5.88
2022-08-20T10:42:15.163Z,1.50
2022-08-20T10:44:42.527Z,2.25
2022-08-20T10:47:20.981Z,1.25
2022-08-20T10:49:49.958Z,1.10
2022-08-20T10:52:16.837Z,0.90
2022-08-20T10:54:43.967Z,1.33
2022-08-20T10:57:17.369Z,1.20
2022-08-20T10:59:46.166Z,1.10
2022-08-20T11:02:13.858Z,6.40
2022-08-20T11:04:41.216Z,3.47
2022-08-20T11:07:50.443Z,9.75
2022-08-20T11:10:23.082Z,2.17
2022-08-20T11:12:49.827Z,11.90
2022-08-20T11:15:16.746Z,0.95
2022-08-20T11:17:44.282Z,0.90
2022-08-20T11:20:13.069Z,1.00
2022-08-20T11:22:39.861Z,0.98
2022-08-20T11:25:08.269Z,1.45
2022-08-20T11:27:41.320Z,1.73
2022-08-20T11:30:11.367Z,12.20
2022-08-20T11:32:38.273Z,10.98
2022-08-20T11:35:19.199Z,2.45
2022-08-20T11:37:55.554Z,2.88
2022-08-20T11:40:23.295Z,1.23
2022-08-20T11:43:12.999Z,1.30
2022-08-20T11:45:37.521Z,1.90
2022-08-20T11:48:05.251Z,1.40
2022-08-20T11:50:32.242Z,1.30
2022-08-20T11:52:59.420Z,1.20
2022-08-20T11:55:30.566Z,1.17
2022-08-20T11:58:00.283Z,1.20
2022-08-20T12:00:33.510Z,1.08
2022-08-20T12:03:02.285Z,1.48
2022-08-20T12:05:30.171Z,1.48
2022-08-20T12:08:00.139Z,1.70
2022-08-20T12:10:28.176Z,1.63
2022-08-20T12:12:55.889Z,1.50
2022-08-20T12:15:25.242Z,1.42
2022-08-20T12:17:52.339Z,1.40
2022-08-20T12:20:19.504Z,2.50
2022-08-20T12:22:46.643Z,1.88
2022-08-20T12:25:13.597Z,3.17
2022-08-20T12:27:41.328Z,1.83
2022-08-20T12:30:17.621Z,1.30
2022-08-20T12:32:44.869Z,1.27
2022-08-20T12:35:13.573Z,1.30
2022-08-20T12:37:41.895Z,1.20
2022-08-20T12:40:16.941Z,1.20
2022-08-20T12:42:51.369Z,1.20
2022-08-20T12:45:18.878Z,1.17
2022-08-20T12:47:47.931Z,1.20
2022-08-20T12:50:28.485Z,1.10
2022-08-20T12:52:58.000Z,1.10
2022-08-20T12:55:25.074Z,0.95
2022-08-20T12:57:56.540Z,1.05
2022-08-20T13:00:27.208Z,1.00
2022-08-20T13:02:56.266Z,1.65
2022-08-20T13:05:24.135Z,1.08
2022-08-20T13:07:52.730Z,1.45
2022-08-20T13:10:26.216Z,1.17
2022-08-20T13:12:53.184Z,1.42
2022-08-20T13:15:22.004Z,1.60
2022-08-20T13:17:56.744Z,2.13
2022-08-20T13:20:27.058Z,1.65
2022-08-20T13:23:01.306Z,0.80
2022-08-20T13:25:28.171Z,0.90
2022-08-20T13:27:57.966Z,1.15
2022-08-20T13:30:25.806Z,0.90
2022-08-20T13:32:52.624Z,0.90
2022-08-20T13:35:19.891Z,1.17
2022-08-20T13:37:48.955Z,1.00
2022-08-20T13:40:16.414Z,0.95
2022-08-20T14:14:56.875Z,1.95
2022-08-20T14:17:29.863Z,1.90
2022-08-20T14:20:05.802Z,1.77
2022-08-20T14:22:33.624Z,1.92
2022-08-20T14:25:03.550Z,1.90
2022-08-20T14:27:32.818Z,2.15
2022-08-20T14:30:00.668Z,2.08
2022-08-20T14:32:28.296Z,1.90
2022-08-20T14:34:57.140Z,1.70
2022-08-20T14:37:27.629Z,1.33
2022-08-20T14:39:59.479Z,1.80
2022-08-20T14:42:28.410Z,1.90
2022-08-20T14:44:57.161Z,1.50
2022-08-20T14:47:28.083Z,1.52
2022-08-20T14:49:57.856Z,1.50
2022-08-20T14:52:28.299Z,1.80
2022-08-20T14:54:55.353Z,1.90
2022-08-20T14:57:22.284Z,1.58
2022-08-20T14:59:52.154Z,1.48
2022-08-20T15:02:19.011Z,1.90
2022-08-20T15:04:51.652Z,1.55
2022-08-20T15:07:29.940Z,1.80
2022-08-20T15:09:57.600Z,2.03
2022-08-20T15:12:24.764Z,1.92
2022-08-20T15:14:51.701Z,1.92
2022-08-20T15:17:20.727Z,1.98
2022-08-20T15:19:47.905Z,2.03
2022-08-20T15:22:15.327Z,1.65
2022-08-20T15:24:42.720Z,1.90
2022-08-20T15:27:21.865Z,1.98
2022-08-20T15:29:50.656Z,1.90
2022-08-20T15:32:18.373Z,2.00
2022-08-20T15:34:45.792Z,1.90
2022-08-20T15:37:21.717Z,1.83
2022-08-20T15:39:49.703Z,1.80
2022-08-20T15:42:17.693Z,2.10
2022-08-20T15:44:45.030Z,1.80
2022-08-20T15:47:19.999Z,2.38
2022-08-20T15:49:49.036Z,2.38
2022-08-20T15:52:17.594Z,2.20
2022-08-20T15:54:45.713Z,2.58
2022-08-20T15:57:28.910Z,2.42
2022-08-20T16:00:20.006Z,2.22
2022-08-20T16:03:08.507Z,3.20
2022-08-20T16:06:00.263Z,3.13
2022-08-20T16:08:54.856Z,2.67
2022-08-20T16:11:25.348Z,3.10
2022-08-20T16:13:57.919Z,3.75
2022-08-20T16:16:35.650Z,4.40
2022-08-20T16:19:02.976Z,3.17
2022-08-20T16:21:34.457Z,3.30
2022-08-20T16:24:01.672Z,3.58
2022-08-20T16:26:46.785Z,4.03
2022-08-20T16:29:43.480Z,8.25
2022-08-20T16:32:18.163Z,3.67
2022-08-20T16:34:57.490Z,2.97
2022-08-20T16:37:36.289Z,3.60
2022-08-20T16:40:27.405Z,3.67
2022-08-20T16:42:58.539Z,3.80
2022-08-20T16:45:35.378Z,3.15
2022-08-20T16:48:06.770Z,3.92
2022-08-20T16:50:58.411Z,3.30
2022-08-20T16:53:26.675Z,2.88
2022-08-20T16:55:54.938Z,3.28
2022-08-20T16:58:21.908Z,2.92
2022-08-20T17:01:05.401Z,2.63
2022-08-20T17:03:33.459Z,3.28
2022-08-20T17:06:28.913Z,3.03
2022-08-20T17:08:55.888Z,3.10
2022-08-20T17:11:31.918Z,3.40
2022-08-20T17:14:15.273Z,3.17
2022-08-20T17:16:48.701Z,3.13
2022-08-20T17:19:29.455Z,4.03
2022-08-20T17:22:09.022Z,5.13
2022-08-20T17:24:37.826Z,4.80
2022-08-20T17:27:10.725Z,4.90
2022-08-20T17:29:53.300Z,5.07
2022-08-20T17:32:28.895Z,4.72
2022-08-20T17:35:00.531Z,4.50
2022-08-20T17:37:39.783Z,4.43
2022-08-20T17:40:11.607Z,5.72
2022-08-20T17:42:54.203Z,5.43
2022-08-20T17:45:44.693Z,5.90
2022-08-20T17:48:23.543Z,6.57
2022-08-20T17:50:52.413Z,9.88
2022-08-20T17:53:23.147Z,11.90
2022-08-20T17:55:54.574Z,13.77
2022-08-20T17:58:32.055Z,14.38
2022-08-20T18:01:01.219Z,13.75
2022-08-20T18:03:28.371Z,12.98
2022-08-20T18:06:03.784Z,14.57
2022-08-20T18:08:51.412Z,14.75
2022-08-20T18:11:37.161Z,14.18
2022-08-20T18:14:06.744Z,11.25
2022-08-20T18:16:50.109Z,10.68
2022-08-20T18:19:35.799Z,9.43
2022-08-20T18:22:13.250Z,9.38
2022-08-20T18:25:09.606Z,9.95
2022-08-20T18:27:46.855Z,11.50
2022-08-20T18:30:17.818Z,11.30
2022-08-20T18:32:47.031Z,11.32
2022-08-20T18:35:19.557Z,11.90
2022-08-20T18:37:46.539Z,11.07
2022-08-20T18:40:26.349Z,11.52
2022-08-20T18:42:53.276Z,11.10
2022-08-20T18:45:34.506Z,11.40
2022-08-20T18:48:03.380Z,12.18
2022-08-20T18:50:30.262Z,12.02
2022-08-20T18:53:17.273Z,12.63
2022-08-20T18:55:47.753Z,12.52
2022-08-20T18:58:55.136Z,12.32
2022-08-20T19:01:22.155Z,12.30
2022-08-20T19:03:52.758Z,13.35
2022-08-20T19:06:41.854Z,14.85
2022-08-20T19:09:40.763Z,14.43
2022-08-20T19:12:46.495Z,14.88
2022-08-20T19:15:21.576Z,14.20
2022-08-20T19:18:03.310Z,14.57
2022-08-20T19:20:34.665Z,14.52
2022-08-20T19:23:19.548Z,13.93
2022-08-20T19:26:25.634Z,14.52
2022-08-20T19:29:02.408Z,14.98
2022-08-20T19:31:32.550Z,14.07
2022-08-20T19:34:19.583Z,17.60
2022-08-20T19:37:34.755Z,14.48
2022-08-20T19:42:42.262Z,15.30
2022-08-20T19:45:26.167Z,16.17
2022-08-20T19:48:05.490Z,16.65
2022-08-20T19:50:59.197Z,15.90
2022-08-20T19:53:30.367Z,15.13
2022-08-20T19:56:06.843Z,16.70
2022-08-20T19:58:35.449Z,16.83
2022-08-20T20:01:04.434Z,17.08
2022-08-20T20:03:34.655Z,19.17
2022-08-20T20:06:13.413Z,21.63
2022-08-20T20:09:11.828Z,19.95
2022-08-20T20:11:53.706Z,19.60
2022-08-20T20:14:25.645Z,19.77
2022-08-20T20:16:53.200Z,20.13
2022-08-20T20:19:26.915Z,21.38
2022-08-20T20:22:05.440Z,20.45
2022-08-20T20:24:44.101Z,18.85
2022-08-20T20:27:20.208Z,19.02
2022-08-20T20:29:48.121Z,20.33
2022-08-20T20:32:24.968Z,18.45
2022-08-20T20:34:56.158Z,18.38
2022-08-20T20:37:50.809Z,18.73
2022-08-20T20:40:33.975Z,18.02
2022-08-20T20:43:09.942Z,18.45
2022-08-20T20:45:44.472Z,17.50
2022-08-20T20:48:18.537Z,17.80
2022-08-20T20:50:47.187Z,15.80
2022-08-20T20:53:24.675Z,15.85
2022-08-20T20:56:02.212Z,14.45
2022-08-20T20:58:29.508Z,15.45
2022-08-20T21:00:58.072Z,15.40
2022-08-20T21:03:25.025Z,13.80
2022-08-20T21:05:52.890Z,14.50
2022-08-20T21:08:19.916Z,14.35
2022-08-20T21:10:48.993Z,13.88
2022-08-20T21:13:16.526Z,13.55
2022-08-20T21:15:43.396Z,14.15
2022-08-20T21:18:11.116Z,13.02
2022-08-20T21:20:38.314Z,12.65
2022-08-20T21:23:05.351Z,12.85
2022-08-20T21:25:34.216Z,13.10
2022-08-20T21:28:01.212Z,12.93
2022-08-20T21:30:28.761Z,12.77
2022-08-20T21:32:55.813Z,12.30
2022-08-20T21:35:22.923Z,11.40
2022-08-20T21:37:50.171Z,11.00
2022-08-20T21:40:18.170Z,11.43
2022-08-20T21:42:48.908Z,10.67
2022-08-20T21:45:18.476Z,11.65
2022-08-20T21:47:46.813Z,10.77
2022-08-20T21:50:18.781Z,11.20
2022-08-20T21:52:55.205Z,11.05
2022-08-20T21:55:29.118Z,11.43
2022-08-20T21:57:56.007Z,11.45
2022-08-20T22:00:47.551Z,11.07
2022-08-20T22:03:15.762Z,10.18
2022-08-20T22:05:43.147Z,10.98
2022-08-20T22:08:10.949Z,10.18
2022-08-20T22:10:38.810Z,10.40
2022-08-20T22:13:06.238Z,10.48
2022-08-20T22:15:33.318Z,10.18
2022-08-20T22:18:00.220Z,10.50
2022-08-20T22:20:26.978Z,10.55
2022-08-20T22:22:53.859Z,10.93
2022-08-20T22:25:20.738Z,9.98
2022-08-20T22:27:47.573Z,10.88
2022-08-20T22:30:14.813Z,10.30
2022-08-20T22:33:01.843Z,10.45
